sensor_id;sensor_type;location;lat;lon;timestamp;P1;durP1;ratioP1;P2;durP2;ratioP2
68108;SDS011;54893;49.864;19.084;2023-02-18T00:00:20;7.63;;;4.15;;
68108;SDS011;54893;49.864;19.084;2023-02-18T00:05:22;6.73;;;4.10;;
68108;SDS011;54893;49.864;19.084;2023-02-18T00:10:22;6.77;;;4.60;;
68108;SDS011;54893;49.864;19.084;2023-02-18T00:15:23;7.97;;;5.13;;
68108;SDS011;54893;49.864;19.084;2023-02-18T00:20:23;7.33;;;5.00;;
68108;SDS011;54893;49.864;19.084;2023-02-18T00:25:24;7.27;;;4.67;;
68108;SDS011;54893;49.864;19.084;2023-02-18T00:30:24;7.18;;;4.50;;
68108;SDS011;54893;49.864;19.084;2023-02-18T00:35:25;7.47;;;4.63;;
68108;SDS011;54893;49.864;19.084;2023-02-18T00:40:25;9.02;;;5.50;;
68108;SDS011;54893;49.864;19.084;2023-02-18T00:45:26;9.53;;;5.70;;
68108;SDS011;54893;49.864;19.084;2023-02-18T00:50:26;8.68;;;5.55;;
68108;SDS011;54893;49.864;19.084;2023-02-18T00:55:26;8.43;;;5.23;;
68108;SDS011;54893;49.864;19.084;2023-02-18T01:00:27;10.87;;;5.90;;
68108;SDS011;54893;49.864;19.084;2023-02-18T01:05:27;8.73;;;4.90;;
68108;SDS011;54893;49.864;19.084;2023-02-18T01:10:27;8.50;;;4.80;;
68108;SDS011;54893;49.864;19.084;2023-02-18T01:15:28;8.07;;;4.67;;
68108;SDS011;54893;49.864;19.084;2023-02-18T01:20:29;7.85;;;4.70;;
68108;SDS011;54893;49.864;19.084;2023-02-18T01:25:29;7.30;;;4.30;;
68108;SDS011;54893;49.864;19.084;2023-02-18T01:30:30;7.50;;;4.20;;
68108;SDS011;54893;49.864;19.084;2023-02-18T01:35:31;7.03;;;3.97;;
68108;SDS011;54893;49.864;19.084;2023-02-18T01:40:31;7.13;;;4.50;;
68108;SDS011;54893;49.864;19.084;2023-02-18T01:50:32;8.27;;;3.00;;
68108;SDS011;54893;49.864;19.084;2023-02-18T01:55:36;8.10;;;3.78;;
68108;SDS011;54893;49.864;19.084;2023-02-18T02:00:38;8.03;;;4.20;;
68108;SDS011;54893;49.864;19.084;2023-02-18T02:05:38;9.43;;;4.53;;
68108;SDS011;54893;49.864;19.084;2023-02-18T02:10:41;5.80;;;3.13;;
68108;SDS011;54893;49.864;19.084;2023-02-18T02:15:49;8.13;;;4.20;;
68108;SDS011;54893;49.864;19.084;2023-02-18T02:36:54;8.83;;;3.53;;
68108;SDS011;54893;49.864;19.084;2023-02-18T02:42:12;12.48;;;5.85;;
68108;SDS011;54893;49.864;19.084;2023-02-18T02:47:37;10.48;;;5.38;;
68108;SDS011;54893;49.864;19.084;2023-02-18T02:52:49;10.52;;;5.50;;
68108;SDS011;54893;49.864;19.084;2023-02-18T02:57:53;8.55;;;5.25;;
68108;SDS011;54893;49.864;19.084;2023-02-18T03:13:25;8.60;;;3.83;;
68108;SDS011;54893;49.864;19.084;2023-02-18T03:18:39;7.63;;;3.90;;
68108;SDS011;54893;49.864;19.084;2023-02-18T03:23:48;7.07;;;3.75;;
68108;SDS011;54893;49.864;19.084;2023-02-18T03:28:57;7.93;;;3.72;;
68108;SDS011;54893;49.864;19.084;2023-02-18T03:34:01;8.33;;;4.00;;
68108;SDS011;54893;49.864;19.084;2023-02-18T03:39:15;7.30;;;4.40;;
68108;SDS011;54893;49.864;19.084;2023-02-18T03:44:18;9.13;;;4.77;;
68108;SDS011;54893;49.864;19.084;2023-02-18T03:49:19;8.47;;;4.97;;
68108;SDS011;54893;49.864;19.084;2023-02-18T03:54:19;7.87;;;4.53;;
68108;SDS011;54893;49.864;19.084;2023-02-18T03:59:19;7.87;;;4.13;;
68108;SDS011;54893;49.864;19.084;2023-02-18T04:04:19;7.05;;;3.60;;
68108;SDS011;54893;49.864;19.084;2023-02-18T04:09:20;7.33;;;3.13;;
68108;SDS011;54893;49.864;19.084;2023-02-18T04:14:21;6.97;;;3.15;;
68108;SDS011;54893;49.864;19.084;2023-02-18T04:19:21;6.80;;;3.70;;
68108;SDS011;54893;49.864;19.084;2023-02-18T04:24:22;7.30;;;3.90;;
68108;SDS011;54893;49.864;19.084;2023-02-18T04:29:22;7.53;;;3.90;;
68108;SDS011;54893;49.864;19.084;2023-02-18T04:34:22;6.37;;;2.77;;
68108;SDS011;54893;49.864;19.084;2023-02-18T04:39:23;6.60;;;2.40;;
68108;SDS011;54893;49.864;19.084;2023-02-18T04:44:24;4.37;;;2.23;;
68108;SDS011;54893;49.864;19.084;2023-02-18T04:49:24;4.43;;;1.90;;
68108;SDS011;54893;49.864;19.084;2023-02-18T04:54:24;6.27;;;2.20;;
68108;SDS011;54893;49.864;19.084;2023-02-18T04:59:25;5.23;;;2.23;;
68108;SDS011;54893;49.864;19.084;2023-02-18T05:04:25;5.40;;;2.50;;
68108;SDS011;54893;49.864;19.084;2023-02-18T05:09:26;5.03;;;2.10;;
68108;SDS011;54893;49.864;19.084;2023-02-18T05:14:26;5.67;;;2.40;;
68108;SDS011;54893;49.864;19.084;2023-02-18T05:19:26;7.70;;;2.80;;
68108;SDS011;54893;49.864;19.084;2023-02-18T05:24:27;4.78;;;1.48;;
68108;SDS011;54893;49.864;19.084;2023-02-18T05:29:27;7.20;;;2.00;;
68108;SDS011;54893;49.864;19.084;2023-02-18T05:34:27;4.43;;;1.30;;
68108;SDS011;54893;49.864;19.084;2023-02-18T05:39:28;5.35;;;1.30;;
68108;SDS011;54893;49.864;19.084;2023-02-18T05:44:28;6.60;;;2.10;;
68108;SDS011;54893;49.864;19.084;2023-02-18T05:49:32;6.18;;;1.80;;
68108;SDS011;54893;49.864;19.084;2023-02-18T05:54:34;5.10;;;1.70;;
68108;SDS011;54893;49.864;19.084;2023-02-18T05:59:35;5.95;;;1.63;;
68108;SDS011;54893;49.864;19.084;2023-02-18T06:04:35;4.83;;;1.63;;
68108;SDS011;54893;49.864;19.084;2023-02-18T06:09:36;5.03;;;1.50;;
68108;SDS011;54893;49.864;19.084;2023-02-18T06:14:36;5.70;;;1.43;;
68108;SDS011;54893;49.864;19.084;2023-02-18T06:19:37;5.30;;;1.40;;
68108;SDS011;54893;49.864;19.084;2023-02-18T06:24:37;5.53;;;1.77;;
68108;SDS011;54893;49.864;19.084;2023-02-18T06:29:38;5.53;;;1.70;;
68108;SDS011;54893;49.864;19.084;2023-02-18T06:34:38;4.53;;;1.87;;
68108;SDS011;54893;49.864;19.084;2023-02-18T06:39:38;5.93;;;2.00;;
68108;SDS011;54893;49.864;19.084;2023-02-18T06:44:39;5.43;;;1.50;;
68108;SDS011;54893;49.864;19.084;2023-02-18T06:49:39;5.37;;;1.70;;
68108;SDS011;54893;49.864;19.084;2023-02-18T06:54:39;5.70;;;1.77;;
68108;SDS011;54893;49.864;19.084;2023-02-18T06:59:40;4.93;;;1.57;;
68108;SDS011;54893;49.864;19.084;2023-02-18T07:04:40;5.10;;;1.60;;
68108;SDS011;54893;49.864;19.084;2023-02-18T07:09:40;4.33;;;1.20;;
68108;SDS011;54893;49.864;19.084;2023-02-18T07:14:41;4.70;;;1.43;;
68108;SDS011;54893;49.864;19.084;2023-02-18T07:19:41;7.20;;;1.67;;
68108;SDS011;54893;49.864;19.084;2023-02-18T07:24:42;5.20;;;1.37;;
68108;SDS011;54893;49.864;19.084;2023-02-18T07:29:42;5.00;;;1.87;;
68108;SDS011;54893;49.864;19.084;2023-02-18T07:34:43;4.40;;;1.53;;
68108;SDS011;54893;49.864;19.084;2023-02-18T07:39:43;7.83;;;2.10;;
68108;SDS011;54893;49.864;19.084;2023-02-18T07:44:44;4.30;;;1.60;;
68108;SDS011;54893;49.864;19.084;2023-02-18T07:49:45;4.50;;;1.60;;
68108;SDS011;54893;49.864;19.084;2023-02-18T07:54:46;7.47;;;2.00;;
68108;SDS011;54893;49.864;19.084;2023-02-18T07:59:46;8.57;;;3.00;;
68108;SDS011;54893;49.864;19.084;2023-02-18T08:04:47;6.33;;;2.27;;
68108;SDS011;54893;49.864;19.084;2023-02-18T08:09:47;8.03;;;2.67;;
68108;SDS011;54893;49.864;19.084;2023-02-18T08:14:49;9.85;;;3.80;;
68108;SDS011;54893;49.864;19.084;2023-02-18T08:19:50;8.67;;;3.33;;
68108;SDS011;54893;49.864;19.084;2023-02-18T08:24:52;8.13;;;2.63;;
68108;SDS011;54893;49.864;19.084;2023-02-18T08:29:54;6.75;;;2.80;;
68108;SDS011;54893;49.864;19.084;2023-02-18T08:34:55;10.03;;;2.73;;
68108;SDS011;54893;49.864;19.084;2023-02-18T08:39:55;7.33;;;3.07;;
68108;SDS011;54893;49.864;19.084;2023-02-18T08:44:56;8.63;;;3.50;;
68108;SDS011;54893;49.864;19.084;2023-02-18T08:49:56;8.82;;;4.57;;
68108;SDS011;54893;49.864;19.084;2023-02-18T08:54:56;11.93;;;3.93;;
68108;SDS011;54893;49.864;19.084;2023-02-18T08:59:57;12.23;;;4.80;;
68108;SDS011;54893;49.864;19.084;2023-02-18T09:04:57;7.43;;;3.17;;
68108;SDS011;54893;49.864;19.084;2023-02-18T09:09:57;12.40;;;4.37;;
68108;SDS011;54893;49.864;19.084;2023-02-18T09:14:58;12.23;;;4.07;;
68108;SDS011;54893;49.864;19.084;2023-02-18T09:19:59;15.17;;;7.87;;
68108;SDS011;54893;49.864;19.084;2023-02-18T09:25:00;11.10;;;5.10;;
68108;SDS011;54893;49.864;19.084;2023-02-18T09:30:00;13.13;;;4.87;;
68108;SDS011;54893;49.864;19.084;2023-02-18T09:35:02;13.90;;;4.43;;
68108;SDS011;54893;49.864;19.084;2023-02-18T09:40:03;13.33;;;4.00;;
68108;SDS011;54893;49.864;19.084;2023-02-18T09:45:05;10.73;;;4.85;;
68108;SDS011;54893;49.864;19.084;2023-02-18T09:50:10;13.40;;;5.43;;
68108;SDS011;54893;49.864;19.084;2023-02-18T09:55:21;18.75;;;5.13;;
68108;SDS011;54893;49.864;19.084;2023-02-18T10:01:10;12.88;;;4.90;;
68108;SDS011;54893;49.864;19.084;2023-02-18T10:06:25;9.30;;;4.07;;
68108;SDS011;54893;49.864;19.084;2023-02-18T10:11:31;4.30;;;1.23;;
68108;SDS011;54893;49.864;19.084;2023-02-18T10:16:36;6.23;;;1.10;;
68108;SDS011;54893;49.864;19.084;2023-02-18T10:21:37;4.50;;;1.20;;
68108;SDS011;54893;49.864;19.084;2023-02-18T10:26:38;6.65;;;1.40;;
68108;SDS011;54893;49.864;19.084;2023-02-18T10:31:40;4.50;;;1.63;;
68108;SDS011;54893;49.864;19.084;2023-02-18T10:36:45;6.15;;;1.63;;
68108;SDS011;54893;49.864;19.084;2023-02-18T10:52:43;10.63;;;2.45;;
68108;SDS011;54893;49.864;19.084;2023-02-18T10:57:47;10.67;;;2.97;;
68108;SDS011;54893;49.864;19.084;2023-02-18T11:03:05;8.07;;;2.83;;
68108;SDS011;54893;49.864;19.084;2023-02-18T11:08:28;10.27;;;3.00;;
68108;SDS011;54893;49.864;19.084;2023-02-18T11:13:36;8.30;;;2.60;;
68108;SDS011;54893;49.864;19.084;2023-02-18T11:18:40;9.50;;;3.15;;
68108;SDS011;54893;49.864;19.084;2023-02-18T11:23:49;8.17;;;2.47;;
68108;SDS011;54893;49.864;19.084;2023-02-18T11:28:51;9.93;;;2.90;;
68108;SDS011;54893;49.864;19.084;2023-02-18T11:33:59;11.30;;;2.33;;
68108;SDS011;54893;49.864;19.084;2023-02-18T11:39:03;12.35;;;3.40;;
68108;SDS011;54893;49.864;19.084;2023-02-18T11:44:28;13.57;;;5.30;;
68108;SDS011;54893;49.864;19.084;2023-02-18T11:49:30;11.67;;;3.73;;
68108;SDS011;54893;49.864;19.084;2023-02-18T11:54:33;10.98;;;3.47;;
68108;SDS011;54893;49.864;19.084;2023-02-18T11:59:35;12.87;;;3.37;;
68108;SDS011;54893;49.864;19.084;2023-02-18T12:10:25;15.65;;;5.13;;
68108;SDS011;54893;49.864;19.084;2023-02-18T12:15:52;10.93;;;3.73;;
68108;SDS011;54893;49.864;19.084;2023-02-18T12:20:56;16.10;;;5.45;;
68108;SDS011;54893;49.864;19.084;2023-02-18T12:31:39;29.58;;;11.40;;
68108;SDS011;54893;49.864;19.084;2023-02-18T12:48:11;16.52;;;6.20;;
68108;SDS011;54893;49.864;19.084;2023-02-18T13:09:25;17.53;;;6.13;;
68108;SDS011;54893;49.864;19.084;2023-02-18T13:14:36;27.20;;;9.15;;
68108;SDS011;54893;49.864;19.084;2023-02-18T13:24:54;27.27;;;11.23;;
68108;SDS011;54893;49.864;19.084;2023-02-18T13:35:20;45.53;;;18.80;;
68108;SDS011;54893;49.864;19.084;2023-02-18T13:40:31;56.72;;;20.80;;
68108;SDS011;54893;49.864;19.084;2023-02-18T13:45:32;55.07;;;22.07;;
68108;SDS011;54893;49.864;19.084;2023-02-18T13:50:41;67.70;;;32.03;;
68108;SDS011;54893;49.864;19.084;2023-02-18T14:01:05;52.55;;;21.38;;
68108;SDS011;54893;49.864;19.084;2023-02-18T14:06:18;55.33;;;24.27;;
68108;SDS011;54893;49.864;19.084;2023-02-18T14:16:20;29.67;;;17.40;;
68108;SDS011;54893;49.864;19.084;2023-02-18T14:21:22;24.20;;;12.27;;
68108;SDS011;54893;49.864;19.084;2023-02-18T14:26:36;25.05;;;11.68;;
68108;SDS011;54893;49.864;19.084;2023-02-18T14:31:49;21.50;;;10.57;;
68108;SDS011;54893;49.864;19.084;2023-02-18T14:42:54;20.77;;;12.07;;
68108;SDS011;54893;49.864;19.084;2023-02-18T14:48:29;17.20;;;10.50;;
68108;SDS011;54893;49.864;19.084;2023-02-18T14:53:41;16.75;;;9.75;;
68108;SDS011;54893;49.864;19.084;2023-02-18T14:58:45;21.13;;;11.33;;
68108;SDS011;54893;49.864;19.084;2023-02-18T15:03:48;23.70;;;12.57;;
68108;SDS011;54893;49.864;19.084;2023-02-18T15:08:51;21.20;;;12.10;;
68108;SDS011;54893;49.864;19.084;2023-02-18T15:13:51;17.77;;;9.80;;
68108;SDS011;54893;49.864;19.084;2023-02-18T15:18:53;20.37;;;11.13;;
68108;SDS011;54893;49.864;19.084;2023-02-18T15:29:16;19.60;;;11.90;;
68108;SDS011;54893;49.864;19.084;2023-02-18T15:39:31;14.07;;;9.00;;
68108;SDS011;54893;49.864;19.084;2023-02-18T15:44:33;13.60;;;9.37;;
68108;SDS011;54893;49.864;19.084;2023-02-18T15:49:35;15.48;;;9.27;;
68108;SDS011;54893;49.864;19.084;2023-02-18T15:54:38;12.55;;;8.63;;
68108;SDS011;54893;49.864;19.084;2023-02-18T15:59:44;14.60;;;8.13;;
68108;SDS011;54893;49.864;19.084;2023-02-18T16:04:51;14.43;;;7.72;;
68108;SDS011;54893;49.864;19.084;2023-02-18T16:15:28;12.70;;;8.00;;
68108;SDS011;54893;49.864;19.084;2023-02-18T16:20:33;15.40;;;8.43;;
68108;SDS011;54893;49.864;19.084;2023-02-18T16:30:41;12.88;;;8.25;;
68108;SDS011;54893;49.864;19.084;2023-02-18T16:35:44;12.57;;;6.50;;
68108;SDS011;54893;49.864;19.084;2023-02-18T16:40:45;10.85;;;6.03;;
68108;SDS011;54893;49.864;19.084;2023-02-18T16:45:47;11.20;;;7.17;;
68108;SDS011;54893;49.864;19.084;2023-02-18T16:50:51;10.80;;;7.32;;
68108;SDS011;54893;49.864;19.084;2023-02-18T16:55:52;10.50;;;7.13;;
68108;SDS011;54893;49.864;19.084;2023-02-18T17:00:52;11.37;;;7.03;;
68108;SDS011;54893;49.864;19.084;2023-02-18T17:05:53;11.20;;;6.90;;
68108;SDS011;54893;49.864;19.084;2023-02-18T17:10:56;10.93;;;7.20;;
68108;SDS011;54893;49.864;19.084;2023-02-18T17:15:57;12.80;;;7.97;;
68108;SDS011;54893;49.864;19.084;2023-02-18T17:20:58;12.93;;;8.23;;
68108;SDS011;54893;49.864;19.084;2023-02-18T17:25:58;13.60;;;9.67;;
68108;SDS011;54893;49.864;19.084;2023-02-18T17:30:58;19.52;;;9.63;;
68108;SDS011;54893;49.864;19.084;2023-02-18T17:35:59;18.77;;;10.93;;
68108;SDS011;54893;49.864;19.084;2023-02-18T17:40:59;16.27;;;9.52;;
68108;SDS011;54893;49.864;19.084;2023-02-18T17:45:59;15.40;;;9.10;;
68108;SDS011;54893;49.864;19.084;2023-02-18T17:51:00;15.68;;;8.20;;
68108;SDS011;54893;49.864;19.084;2023-02-18T17:56:00;15.40;;;8.40;;
68108;SDS011;54893;49.864;19.084;2023-02-18T18:01:01;13.77;;;8.43;;
68108;SDS011;54893;49.864;19.084;2023-02-18T18:06:01;16.30;;;7.93;;
68108;SDS011;54893;49.864;19.084;2023-02-18T18:11:03;17.70;;;9.67;;
68108;SDS011;54893;49.864;19.084;2023-02-18T18:16:04;16.20;;;7.78;;
68108;SDS011;54893;49.864;19.084;2023-02-18T18:21:05;13.37;;;7.43;;
68108;SDS011;54893;49.864;19.084;2023-02-18T18:26:15;15.65;;;8.95;;
68108;SDS011;54893;49.864;19.084;2023-02-18T18:31:16;14.47;;;8.50;;
68108;SDS011;54893;49.864;19.084;2023-02-18T18:36:18;17.08;;;9.18;;
68108;SDS011;54893;49.864;19.084;2023-02-18T18:41:20;13.65;;;7.22;;
68108;SDS011;54893;49.864;19.084;2023-02-18T18:46:21;12.10;;;8.07;;
68108;SDS011;54893;49.864;19.084;2023-02-18T18:51:23;12.33;;;6.27;;
68108;SDS011;54893;49.864;19.084;2023-02-18T18:56:29;11.05;;;6.30;;
68108;SDS011;54893;49.864;19.084;2023-02-18T19:01:30;12.37;;;6.33;;
68108;SDS011;54893;49.864;19.084;2023-02-18T19:06:30;13.43;;;6.60;;
68108;SDS011;54893;49.864;19.084;2023-02-18T19:11:30;10.13;;;5.67;;
68108;SDS011;54893;49.864;19.084;2023-02-18T19:16:34;11.65;;;6.05;;
68108;SDS011;54893;49.864;19.084;2023-02-18T19:21:36;10.73;;;5.50;;
68108;SDS011;54893;49.864;19.084;2023-02-18T19:26:36;11.83;;;6.30;;
68108;SDS011;54893;49.864;19.084;2023-02-18T19:31:36;10.80;;;5.50;;
68108;SDS011;54893;49.864;19.084;2023-02-18T19:36:37;11.10;;;5.93;;
68108;SDS011;54893;49.864;19.084;2023-02-18T19:41:37;10.70;;;6.10;;
68108;SDS011;54893;49.864;19.084;2023-02-18T19:46:37;8.90;;;5.30;;
68108;SDS011;54893;49.864;19.084;2023-02-18T19:51:38;8.27;;;5.07;;
68108;SDS011;54893;49.864;19.084;2023-02-18T19:56:38;8.90;;;5.30;;
68108;SDS011;54893;49.864;19.084;2023-02-18T20:01:38;9.33;;;5.17;;
68108;SDS011;54893;49.864;19.084;2023-02-18T20:06:39;10.33;;;4.80;;
68108;SDS011;54893;49.864;19.084;2023-02-18T20:11:40;11.30;;;5.87;;
68108;SDS011;54893;49.864;19.084;2023-02-18T20:16:40;10.57;;;5.30;;
68108;SDS011;54893;49.864;19.084;2023-02-18T20:21:40;9.90;;;4.93;;
68108;SDS011;54893;49.864;19.084;2023-02-18T20:26:41;8.80;;;4.83;;
68108;SDS011;54893;49.864;19.084;2023-02-18T20:31:41;9.80;;;4.82;;
68108;SDS011;54893;49.864;19.084;2023-02-18T20:36:42;10.60;;;4.27;;
68108;SDS011;54893;49.864;19.084;2023-02-18T20:41:43;8.82;;;4.50;;
68108;SDS011;54893;49.864;19.084;2023-02-18T20:46:44;8.93;;;5.25;;
68108;SDS011;54893;49.864;19.084;2023-02-18T20:51:45;8.50;;;4.07;;
68108;SDS011;54893;49.864;19.084;2023-02-18T20:56:46;8.98;;;4.90;;
68108;SDS011;54893;49.864;19.084;2023-02-18T21:01:48;9.47;;;4.97;;
68108;SDS011;54893;49.864;19.084;2023-02-18T21:06:49;7.90;;;4.97;;
68108;SDS011;54893;49.864;19.084;2023-02-18T21:11:49;7.45;;;4.38;;
68108;SDS011;54893;49.864;19.084;2023-02-18T21:16:50;7.90;;;4.40;;
68108;SDS011;54893;49.864;19.084;2023-02-18T21:21:50;9.43;;;4.43;;
68108;SDS011;54893;49.864;19.084;2023-02-18T21:26:50;8.83;;;3.80;;
68108;SDS011;54893;49.864;19.084;2023-02-18T21:31:52;7.83;;;3.97;;
68108;SDS011;54893;49.864;19.084;2023-02-18T21:36:53;7.23;;;3.77;;
68108;SDS011;54893;49.864;19.084;2023-02-18T21:41:53;6.72;;;2.95;;
68108;SDS011;54893;49.864;19.084;2023-02-18T21:46:53;8.68;;;4.03;;
68108;SDS011;54893;49.864;19.084;2023-02-18T21:51:53;6.05;;;2.90;;
68108;SDS011;54893;49.864;19.084;2023-02-18T21:56:59;8.65;;;3.42;;
68108;SDS011;54893;49.864;19.084;2023-02-18T22:02:03;7.13;;;3.40;;
68108;SDS011;54893;49.864;19.084;2023-02-18T22:07:04;6.70;;;3.33;;
68108;SDS011;54893;49.864;19.084;2023-02-18T22:12:05;7.10;;;2.93;;
68108;SDS011;54893;49.864;19.084;2023-02-18T22:17:06;6.10;;;3.10;;
68108;SDS011;54893;49.864;19.084;2023-02-18T22:22:07;7.88;;;3.63;;
68108;SDS011;54893;49.864;19.084;2023-02-18T22:27:08;8.07;;;4.30;;
68108;SDS011;54893;49.864;19.084;2023-02-18T22:32:08;6.35;;;2.97;;
68108;SDS011;54893;49.864;19.084;2023-02-18T22:37:08;6.93;;;3.30;;
68108;SDS011;54893;49.864;19.084;2023-02-18T22:42:09;7.47;;;3.87;;
68108;SDS011;54893;49.864;19.084;2023-02-18T22:47:09;7.33;;;3.77;;
68108;SDS011;54893;49.864;19.084;2023-02-18T22:52:09;8.87;;;4.23;;
68108;SDS011;54893;49.864;19.084;2023-02-18T22:57:10;6.63;;;3.20;;
68108;SDS011;54893;49.864;19.084;2023-02-18T23:02:10;25.90;;;7.37;;
68108;SDS011;54893;49.864;19.084;2023-02-18T23:07:10;12.55;;;4.82;;
68108;SDS011;54893;49.864;19.084;2023-02-18T23:12:11;14.68;;;6.40;;
68108;SDS011;54893;49.864;19.084;2023-02-18T23:17:11;5.05;;;2.00;;
68108;SDS011;54893;49.864;19.084;2023-02-18T23:22:13;3.95;;;1.38;;
68108;SDS011;54893;49.864;19.084;2023-02-18T23:27:32;4.07;;;1.20;;
68108;SDS011;54893;49.864;19.084;2023-02-18T23:32:32;4.20;;;1.63;;
68108;SDS011;54893;49.864;19.084;2023-02-18T23:37:33;3.00;;;1.10;;
68108;SDS011;54893;49.864;19.084;2023-02-18T23:42:52;4.47;;;1.58;;
68108;SDS011;54893;49.864;19.084;2023-02-18T23:47:52;4.90;;;2.17;;
68108;SDS011;54893;49.864;19.084;2023-02-18T23:52:53;5.23;;;2.03;;
68108;SDS011;54893;49.864;19.084;2023-02-18T23:57:53;4.55;;;1.60;;
